createdAt,value
2022-10-18T00:00:17.320Z,99.90
2022-10-18T00:02:44.133Z,99.90
2022-10-18T00:05:10.998Z,99.90
2022-10-18T00:07:37.857Z,99.90
2022-10-18T00:10:05.362Z,99.90
2022-10-18T00:12:36.619Z,99.90
2022-10-18T00:15:07.088Z,99.90
2022-10-18T00:17:37.666Z,99.90
2022-10-18T00:20:06.138Z,99.90
2022-10-18T00:22:38.585Z,99.90
2022-10-18T00:25:06.809Z,99.90
2022-10-18T00:27:34.097Z,99.90
2022-10-18T00:30:00.933Z,99.90
2022-10-18T00:32:28.157Z,99.90
2022-10-18T00:34:55.195Z,99.90
2022-10-18T00:37:22.062Z,99.90
2022-10-18T00:39:48.938Z,99.90
2022-10-18T00:42:20.766Z,99.90
2022-10-18T00:44:50.772Z,99.90
2022-10-18T00:47:19.610Z,99.90
2022-10-18T00:49:51.499Z,99.90
2022-10-18T00:52:33.694Z,99.90
2022-10-18T00:55:01.300Z,99.90
2022-10-18T00:57:28.397Z,99.90
2022-10-18T00:59:55.640Z,99.90
2022-10-18T01:02:23.901Z,99.90
2022-10-18T01:04:50.782Z,99.90
2022-10-18T01:07:44.035Z,99.90
2022-10-18T01:10:23.071Z,99.90
2022-10-18T01:13:27.418Z,99.90
2022-10-18T01:16:24.015Z,99.90
2022-10-18T01:19:11.967Z,99.90
2022-10-18T01:21:44.569Z,99.90
2022-10-18T01:24:32.003Z,99.90
2022-10-18T01:27:50.028Z,99.90
2022-10-18T01:30:40.725Z,99.90
2022-10-18T01:33:13.370Z,99.90
2022-10-18T01:35:45.515Z,99.90
2022-10-18T01:38:17.941Z,99.90
2022-10-18T01:40:48.456Z,99.90
2022-10-18T01:43:17.802Z,99.90
2022-10-18T01:45:45.378Z,99.90
2022-10-18T01:48:13.995Z,99.90
2022-10-18T01:50:40.933Z,99.90
2022-10-18T01:53:28.552Z,99.90
2022-10-18T01:56:18.090Z,99.90
2022-10-18T01:59:05.600Z,99.90
2022-10-18T02:01:43.944Z,99.90
2022-10-18T02:04:36.616Z,99.90
2022-10-18T02:07:16.685Z,99.90
2022-10-18T02:09:55.199Z,99.90
2022-10-18T02:12:23.448Z,99.90
2022-10-18T02:14:51.915Z,99.90
2022-10-18T02:17:21.016Z,99.90
2022-10-18T02:19:52.503Z,99.90
2022-10-18T02:22:20.086Z,99.90
2022-10-18T02:24:53.011Z,99.90
2022-10-18T02:27:20.378Z,99.90
2022-10-18T02:29:47.446Z,99.90
2022-10-18T02:32:32.376Z,99.90
2022-10-18T02:35:13.115Z,99.90
2022-10-18T02:37:40.439Z,99.90
2022-10-18T02:40:10.213Z,99.90
2022-10-18T02:42:44.355Z,99.90
2022-10-18T02:45:11.483Z,99.90
2022-10-18T02:47:38.283Z,99.90
2022-10-18T02:50:05.834Z,99.90
2022-10-18T02:52:32.667Z,99.90
2022-10-18T02:54:59.537Z,99.90
2022-10-18T02:57:26.333Z,99.90
2022-10-18T02:59:53.419Z,99.90
2022-10-18T03:02:20.206Z,99.90
2022-10-18T03:04:47.025Z,99.90
2022-10-18T03:07:13.910Z,99.90
2022-10-18T03:09:40.797Z,99.90
2022-10-18T03:12:08.009Z,99.90
2022-10-18T03:14:34.856Z,99.90
2022-10-18T03:17:01.673Z,99.90
2022-10-18T03:19:28.473Z,99.90
2022-10-18T03:21:55.279Z,99.90
2022-10-18T03:24:22.075Z,99.90
2022-10-18T03:26:48.971Z,99.90
2022-10-18T03:29:15.810Z,99.90
2022-10-18T03:31:42.631Z,99.90
2022-10-18T03:34:09.427Z,99.90
2022-10-18T03:36:36.243Z,99.90
2022-10-18T03:39:03.299Z,99.90
2022-10-18T03:41:30.166Z,99.90
2022-10-18T03:43:57.017Z,99.90
2022-10-18T03:46:23.844Z,99.90
2022-10-18T03:48:50.760Z,99.90
2022-10-18T03:51:17.593Z,99.90
2022-10-18T03:53:44.425Z,99.90
2022-10-18T03:56:11.260Z,99.90
2022-10-18T03:58:38.081Z,99.90
2022-10-18T04:01:04.969Z,99.90
2022-10-18T04:03:31.784Z,99.90
2022-10-18T04:06:00.690Z,99.90
2022-10-18T04:08:27.525Z,99.90
2022-10-18T04:10:54.292Z,99.90
2022-10-18T04:13:21.091Z,99.90
2022-10-18T04:15:47.902Z,99.90
2022-10-18T04:18:14.755Z,99.90
2022-10-18T04:20:41.532Z,99.90
2022-10-18T04:23:08.345Z,99.90
2022-10-18T04:25:35.220Z,99.90
2022-10-18T04:28:02.233Z,99.90
2022-10-18T04:30:29.098Z,99.90
2022-10-18T04:32:55.906Z,99.90
2022-10-18T04:35:24.639Z,99.90
2022-10-18T04:37:51.695Z,99.90
2022-10-18T04:40:19.951Z,99.90
2022-10-18T04:42:47.143Z,99.90
2022-10-18T04:45:13.974Z,99.90
2022-10-18T04:47:40.776Z,99.90
2022-10-18T04:50:07.905Z,99.90
2022-10-18T04:52:34.796Z,99.90
2022-10-18T04:55:01.643Z,99.90
2022-10-18T04:57:28.534Z,99.90
2022-10-18T04:59:55.395Z,99.90
2022-10-18T05:02:22.226Z,99.90
2022-10-18T05:04:49.095Z,99.90
2022-10-18T05:07:15.885Z,99.90
2022-10-18T05:09:42.767Z,99.90
2022-10-18T05:12:09.610Z,99.90
2022-10-18T05:14:36.403Z,99.90
2022-10-18T05:17:03.200Z,99.90
2022-10-18T05:19:30.052Z,99.90
2022-10-18T05:21:56.863Z,99.90
2022-10-18T05:24:26.947Z,99.90
2022-10-18T05:26:54.661Z,99.90
2022-10-18T05:29:21.513Z,99.90
2022-10-18T05:31:49.438Z,99.90
2022-10-18T05:34:17.799Z,99.90
2022-10-18T05:36:44.662Z,99.90
2022-10-18T05:39:11.518Z,99.90
2022-10-18T05:41:38.460Z,99.90
2022-10-18T05:44:06.363Z,99.90
2022-10-18T05:46:33.690Z,99.90
2022-10-18T05:49:00.567Z,99.90
2022-10-18T05:51:27.386Z,99.90
2022-10-18T05:53:54.830Z,99.90
2022-10-18T05:56:21.983Z,99.90
2022-10-18T05:58:52.228Z,99.90
2022-10-18T06:01:19.875Z,99.90
2022-10-18T06:03:47.079Z,99.90
2022-10-18T06:06:14.539Z,99.90
2022-10-18T06:08:42.710Z,99.90
2022-10-18T06:11:14.816Z,99.90
2022-10-18T06:13:43.342Z,99.90
2022-10-18T06:16:10.780Z,99.90
2022-10-18T06:18:38.145Z,99.90
2022-10-18T06:21:05.760Z,99.90
2022-10-18T06:23:32.811Z,99.90
2022-10-18T06:26:01.969Z,99.90
2022-10-18T06:28:29.774Z,99.90
2022-10-18T06:30:57.950Z,99.90
2022-10-18T06:33:25.101Z,99.90
2022-10-18T06:36:01.759Z,99.90
2022-10-18T06:38:29.706Z,99.90
2022-10-18T06:40:57.621Z,99.90
2022-10-18T06:43:24.801Z,99.90
2022-10-18T06:45:52.109Z,99.90
2022-10-18T06:50:53.482Z,99.90
2022-10-18T06:53:20.360Z,99.90
2022-10-18T06:55:47.145Z,99.90
2022-10-18T06:58:13.978Z,99.90
2022-10-18T07:00:40.841Z,99.90
2022-10-18T07:03:07.687Z,99.90
2022-10-18T07:05:34.551Z,99.90
2022-10-18T07:08:01.637Z,99.90
2022-10-18T07:10:28.500Z,99.90
2022-10-18T07:13:07.971Z,99.90
2022-10-18T07:15:42.922Z,99.90
2022-10-18T07:18:09.749Z,99.90
2022-10-18T07:20:36.582Z,99.90
2022-10-18T07:23:03.480Z,99.90
2022-10-18T07:25:31.205Z,99.90
2022-10-18T07:27:58.052Z,99.90
2022-10-18T07:30:24.867Z,99.90
2022-10-18T07:32:52.545Z,99.90
2022-10-18T07:35:19.371Z,99.90
2022-10-18T07:37:46.394Z,99.90
2022-10-18T07:40:13.427Z,99.90
2022-10-18T07:42:40.283Z,99.90
2022-10-18T07:45:07.615Z,99.90
2022-10-18T07:47:35.354Z,99.90
2022-10-18T07:50:02.399Z,99.90
2022-10-18T07:52:29.174Z,99.90
2022-10-18T07:54:56.000Z,99.90
2022-10-18T07:57:23.534Z,99.90
2022-10-18T07:59:56.371Z,99.90
2022-10-18T08:02:26.257Z,99.90
2022-10-18T08:04:53.162Z,99.90
2022-10-18T08:07:20.029Z,99.90
2022-10-18T08:09:46.854Z,99.90
2022-10-18T08:12:15.541Z,99.90
2022-10-18T08:14:42.597Z,99.90
2022-10-18T08:17:09.831Z,99.90
2022-10-18T08:19:36.651Z,99.90
2022-10-18T08:22:03.504Z,99.90
2022-10-18T08:24:30.344Z,99.90
2022-10-18T08:26:57.148Z,99.90
2022-10-18T08:29:26.913Z,99.90
2022-10-18T08:31:56.108Z,99.90
2022-10-18T08:34:23.016Z,99.90
2022-10-18T08:36:49.897Z,99.90
2022-10-18T08:39:16.820Z,99.90
2022-10-18T08:42:03.570Z,99.90
2022-10-18T08:44:38.390Z,99.90
2022-10-18T08:47:11.843Z,99.90
2022-10-18T08:49:55.705Z,99.90
2022-10-18T08:52:58.342Z,99.90
2022-10-18T08:55:30.068Z,99.90
2022-10-18T08:57:58.365Z,99.90
2022-10-18T09:00:30.414Z,99.90
2022-10-18T09:03:00.307Z,99.90
2022-10-18T09:05:48.497Z,99.90
2022-10-18T09:08:45.809Z,99.30
2022-10-18T09:11:18.555Z,99.90
2022-10-18T09:13:58.570Z,99.90
2022-10-18T09:17:05.863Z,99.90
2022-10-18T09:19:48.224Z,99.30
2022-10-18T09:22:18.662Z,99.90
2022-10-18T09:24:57.564Z,99.90
2022-10-18T09:27:41.467Z,99.00
2022-10-18T09:30:43.440Z,99.20
2022-10-18T09:33:46.792Z,99.20
2022-10-18T09:36:22.312Z,99.30
2022-10-18T09:38:58.514Z,99.70
2022-10-18T09:41:34.234Z,99.80
2022-10-18T09:44:09.686Z,99.90
2022-10-18T09:46:43.626Z,99.90
2022-10-18T09:49:17.068Z,99.90
2022-10-18T09:51:45.748Z,99.90
2022-10-18T09:54:34.997Z,99.90
2022-10-18T09:57:34.043Z,99.90
2022-10-18T10:00:03.518Z,99.90
2022-10-18T10:02:30.434Z,99.90
2022-10-18T10:04:57.595Z,99.90
2022-10-18T10:07:31.055Z,99.90
2022-10-18T10:10:16.287Z,99.90
2022-10-18T10:12:43.246Z,99.10
2022-10-18T10:15:29.578Z,97.20
2022-10-18T10:18:15.767Z,94.10
2022-10-18T10:20:46.910Z,93.70
2022-10-18T10:23:23.054Z,92.30
2022-10-18T10:25:56.364Z,93.70
2022-10-18T10:28:36.384Z,93.90
2022-10-18T10:31:24.846Z,94.50
2022-10-18T10:34:05.847Z,94.30
2022-10-18T10:36:33.638Z,91.60
2022-10-18T10:39:03.567Z,90.80
2022-10-18T10:44:05.228Z,87.00
2022-10-18T10:46:36.583Z,87.90
2022-10-18T10:49:38.083Z,84.10
2022-10-18T10:52:08.939Z,84.40
2022-10-18T10:54:51.502Z,81.30
2022-10-18T10:57:28.387Z,81.70
2022-10-18T10:59:58.289Z,79.50
2022-10-18T11:02:33.320Z,81.90
2022-10-18T11:05:17.325Z,80.70
2022-10-18T11:07:46.513Z,77.80
2022-10-18T11:10:21.870Z,78.90
2022-10-18T11:13:29.075Z,79.50
2022-10-18T11:16:12.536Z,78.40
2022-10-18T11:18:41.058Z,76.90
2022-10-18T11:21:13.000Z,76.10
2022-10-18T11:23:42.421Z,77.80
2022-10-18T11:26:12.140Z,76.00
2022-10-18T11:28:57.418Z,75.30
2022-10-18T11:31:37.432Z,73.10
2022-10-18T11:34:26.045Z,71.80
2022-10-18T11:37:25.898Z,72.80
2022-10-18T11:40:03.795Z,72.20
2022-10-18T11:42:54.737Z,72.30
2022-10-18T11:45:47.117Z,72.60
2022-10-18T11:48:41.307Z,73.90
2022-10-18T11:51:14.029Z,72.70
2022-10-18T11:54:09.693Z,73.90
2022-10-18T11:56:45.001Z,74.40
2022-10-18T11:59:32.730Z,76.10
2022-10-18T12:02:03.422Z,77.70
2022-10-18T12:04:49.086Z,79.20
2022-10-18T12:07:34.583Z,81.70
2022-10-18T12:10:02.859Z,83.50
2022-10-18T12:12:53.127Z,85.00
2022-10-18T12:15:22.856Z,87.10
2022-10-18T12:18:01.757Z,86.40
2022-10-18T12:20:33.469Z,87.20
2022-10-18T12:23:14.006Z,89.90
2022-10-18T12:25:46.065Z,89.30
2022-10-18T12:28:49.077Z,89.40
2022-10-18T12:31:18.811Z,90.50
2022-10-18T12:33:55.800Z,90.40
2022-10-18T12:36:22.535Z,90.30
2022-10-18T12:39:00.144Z,90.50
2022-10-18T12:41:32.759Z,89.90
2022-10-18T12:44:07.980Z,88.70
2022-10-18T12:47:05.201Z,90.10
2022-10-18T12:49:40.207Z,86.70
2022-10-18T12:52:24.446Z,87.70
2022-10-18T12:55:18.419Z,90.00
2022-10-18T12:58:20.860Z,90.90
2022-10-18T13:00:47.858Z,90.00
2022-10-18T13:03:17.946Z,88.90
2022-10-18T13:05:56.065Z,90.10
2022-10-18T13:08:38.394Z,91.40
2022-10-18T13:11:11.145Z,91.80
2022-10-18T13:13:55.495Z,90.90
2022-10-18T13:16:40.809Z,92.10
2022-10-18T13:19:30.371Z,92.90
2022-10-18T13:22:20.936Z,93.60
2022-10-18T13:25:26.445Z,93.80
2022-10-18T13:27:56.176Z,94.00
2022-10-18T13:30:38.530Z,95.00
2022-10-18T13:33:27.454Z,94.30
2022-10-18T13:36:13.017Z,94.00
2022-10-18T13:38:48.833Z,93.20
2022-10-18T13:41:21.018Z,94.80
2022-10-18T13:43:56.649Z,95.00
2022-10-18T13:46:33.834Z,94.80
2022-10-18T13:49:20.574Z,96.00
2022-10-18T13:51:59.551Z,97.50
2022-10-18T13:54:46.873Z,99.00
2022-10-18T13:57:19.517Z,99.70
2022-10-18T14:00:01.315Z,99.90
2022-10-18T14:02:55.048Z,99.90
2022-10-18T14:05:34.292Z,99.90
2022-10-18T14:08:11.548Z,99.70
2022-10-18T14:11:01.849Z,99.90
2022-10-18T14:13:47.201Z,99.90
2022-10-18T14:16:36.615Z,99.90
2022-10-18T14:19:14.126Z,99.90
2022-10-18T14:21:49.409Z,99.90
2022-10-18T14:24:22.278Z,99.90
2022-10-18T14:27:22.472Z,99.60
2022-10-18T14:29:51.192Z,99.90
2022-10-18T14:32:28.288Z,99.00
2022-10-18T14:35:27.164Z,99.90
2022-10-18T14:37:43.705Z,99.30
2022-10-18T14:40:33.665Z,97.20
2022-10-18T14:43:06.364Z,97.50
2022-10-18T14:45:33.294Z,97.30
2022-10-18T14:48:07.195Z,96.40
2022-10-18T14:50:34.421Z,97.30
2022-10-18T14:53:09.389Z,97.60
2022-10-18T14:55:37.459Z,99.30
2022-10-18T14:58:15.996Z,99.90
2022-10-18T15:00:45.155Z,99.60
2022-10-18T15:03:16.976Z,99.10
2022-10-18T15:05:59.560Z,97.90
2022-10-18T15:08:41.091Z,98.10
2022-10-18T15:11:11.869Z,96.70
2022-10-18T15:14:08.805Z,96.60
2022-10-18T15:16:38.687Z,93.90
2022-10-18T15:19:27.900Z,94.40
2022-10-18T15:22:19.718Z,94.50
2022-10-18T15:24:45.291Z,95.60
2022-10-18T15:27:24.125Z,94.50
2022-10-18T15:29:51.106Z,95.40
2022-10-18T15:32:30.217Z,94.30
2022-10-18T15:35:26.581Z,95.30
2022-10-18T15:37:55.848Z,95.20
2022-10-18T15:40:22.652Z,95.30
2022-10-18T15:42:54.616Z,94.60
2022-10-18T15:45:31.815Z,94.40
2022-10-18T15:48:09.388Z,94.80
2022-10-18T15:50:41.215Z,94.60
2022-10-18T15:53:26.184Z,95.20
2022-10-18T15:55:55.830Z,96.50
2022-10-18T15:58:24.553Z,98.00
2022-10-18T16:00:53.888Z,99.40
2022-10-18T16:03:22.320Z,99.90
2022-10-18T16:05:50.911Z,99.90
2022-10-18T16:08:28.297Z,99.90
2022-10-18T16:10:55.125Z,99.90
2022-10-18T16:13:22.031Z,99.90
2022-10-18T16:15:48.928Z,99.90
2022-10-18T16:18:18.722Z,99.90
2022-10-18T16:20:47.123Z,99.90
2022-10-18T16:23:25.559Z,99.90
2022-10-18T16:25:53.151Z,99.90
2022-10-18T16:28:23.884Z,99.90
2022-10-18T16:30:57.989Z,99.90
2022-10-18T16:33:25.907Z,99.90
2022-10-18T16:35:53.341Z,99.90
2022-10-18T16:38:35.259Z,99.90
2022-10-18T16:41:04.944Z,99.90
2022-10-18T16:43:32.767Z,99.90
2022-10-18T16:45:59.777Z,99.90
2022-10-18T16:48:27.613Z,99.90
2022-10-18T16:50:56.300Z,99.90
2022-10-18T16:53:25.026Z,99.90
2022-10-18T16:55:58.252Z,99.90
2022-10-18T16:58:27.312Z,99.90
2022-10-18T17:00:54.203Z,99.90
2022-10-18T17:03:21.171Z,99.90
2022-10-18T17:05:48.107Z,99.90
2022-10-18T17:08:27.462Z,99.90
2022-10-18T17:10:56.477Z,99.90
2022-10-18T17:13:24.572Z,99.90
2022-10-18T17:15:52.225Z,99.90
2022-10-18T17:18:21.920Z,99.90
2022-10-18T17:20:50.097Z,99.90
2022-10-18T17:23:17.162Z,99.90
2022-10-18T17:25:57.560Z,99.90
2022-10-18T17:28:32.041Z,99.90
2022-10-18T17:30:58.956Z,99.90
2022-10-18T17:33:25.839Z,99.90
2022-10-18T17:35:52.699Z,99.90
2022-10-18T17:38:19.494Z,99.90
2022-10-18T17:40:46.424Z,99.90
2022-10-18T17:43:13.854Z,99.90
2022-10-18T17:45:54.226Z,99.90
2022-10-18T17:48:21.229Z,99.90
2022-10-18T17:50:48.098Z,99.90
2022-10-18T17:53:16.166Z,99.90
2022-10-18T17:55:43.040Z,99.90
2022-10-18T17:58:10.298Z,99.90
2022-10-18T18:00:37.147Z,99.90
2022-10-18T18:03:04.350Z,99.90
2022-10-18T18:05:33.069Z,99.90
2022-10-18T18:08:03.856Z,99.90
2022-10-18T18:10:33.420Z,99.90
2022-10-18T18:13:00.879Z,99.90
2022-10-18T18:15:27.943Z,99.90
2022-10-18T18:17:58.364Z,99.90
2022-10-18T18:20:26.211Z,99.90
2022-10-18T18:22:53.521Z,99.90
2022-10-18T18:25:20.444Z,99.90
2022-10-18T18:27:47.254Z,99.90
2022-10-18T18:30:15.473Z,99.90
2022-10-18T18:32:42.519Z,99.90
2022-10-18T18:35:09.461Z,99.90
2022-10-18T18:37:36.364Z,99.90
2022-10-18T18:40:03.856Z,99.90
2022-10-18T18:42:30.845Z,99.90
2022-10-18T18:44:57.920Z,99.90
2022-10-18T18:47:24.772Z,99.90
2022-10-18T18:49:51.716Z,99.90
2022-10-18T18:52:18.583Z,99.90
2022-10-18T18:54:45.499Z,99.90
2022-10-18T18:57:12.331Z,99.90
2022-10-18T18:59:39.171Z,99.90
2022-10-18T19:02:06.102Z,99.90
2022-10-18T19:04:35.001Z,99.90
2022-10-18T19:07:01.870Z,99.90
2022-10-18T19:09:28.876Z,99.90
2022-10-18T19:11:56.591Z,99.90
2022-10-18T19:14:25.570Z,99.90
2022-10-18T19:16:59.108Z,99.90
2022-10-18T19:19:28.655Z,99.90
2022-10-18T19:22:00.629Z,99.90
2022-10-18T19:24:30.382Z,99.90
2022-10-18T19:27:02.444Z,99.90
2022-10-18T19:29:31.173Z,99.90
2022-10-18T19:32:19.110Z,99.90
2022-10-18T19:34:46.117Z,99.90
2022-10-18T19:37:14.108Z,99.90
2022-10-18T19:39:41.233Z,99.90
2022-10-18T19:42:14.595Z,99.90
2022-10-18T19:44:44.067Z,99.90
2022-10-18T19:47:14.274Z,99.90
2022-10-18T19:49:42.952Z,99.90
2022-10-18T19:52:12.196Z,99.90
2022-10-18T19:54:39.785Z,99.90
2022-10-18T19:57:07.149Z,99.90
2022-10-18T19:59:36.024Z,99.90
2022-10-18T20:02:04.796Z,99.90
2022-10-18T20:04:34.557Z,99.90
2022-10-18T20:07:02.850Z,99.90
2022-10-18T20:09:30.110Z,99.90
2022-10-18T20:11:56.979Z,99.90
2022-10-18T20:14:23.916Z,99.90
2022-10-18T20:16:50.748Z,99.90
2022-10-18T20:19:17.598Z,99.90
2022-10-18T20:21:44.457Z,99.90
2022-10-18T20:24:11.644Z,99.90
2022-10-18T20:26:39.547Z,99.90
2022-10-18T20:29:07.709Z,99.90
2022-10-18T20:31:38.594Z,99.90
2022-10-18T20:34:08.657Z,99.90
2022-10-18T20:36:35.831Z,99.90
2022-10-18T20:39:04.318Z,99.90
2022-10-18T20:41:34.746Z,99.90
2022-10-18T20:44:03.935Z,99.90
2022-10-18T20:46:32.909Z,99.90
2022-10-18T20:49:00.255Z,99.90
2022-10-18T20:51:27.655Z,99.90
2022-10-18T20:53:54.614Z,99.90
2022-10-18T20:56:25.258Z,99.90
2022-10-18T20:58:55.204Z,99.90
2022-10-18T21:01:23.431Z,99.90
2022-10-18T21:03:52.343Z,99.90
2022-10-18T21:06:26.074Z,99.90
2022-10-18T21:09:05.175Z,99.90
2022-10-18T21:11:36.076Z,99.90
2022-10-18T21:14:03.846Z,99.90
2022-10-18T21:16:32.943Z,99.90
2022-10-18T21:19:07.902Z,99.90
2022-10-18T21:21:35.019Z,99.90
2022-10-18T21:24:05.382Z,99.90
2022-10-18T21:26:35.093Z,99.90
2022-10-18T21:29:02.730Z,99.90
2022-10-18T21:31:35.235Z,99.90
2022-10-18T21:34:05.813Z,99.90
2022-10-18T21:36:35.319Z,99.90
2022-10-18T21:39:07.873Z,99.90
2022-10-18T21:41:34.876Z,99.90
2022-10-18T21:44:05.524Z,99.90
2022-10-18T21:46:35.612Z,99.90
2022-10-18T21:49:02.495Z,99.90
2022-10-18T21:51:29.606Z,99.90
2022-10-18T21:53:58.390Z,99.90
2022-10-18T21:56:30.453Z,99.90
2022-10-18T21:58:58.605Z,99.90
2022-10-18T22:01:34.627Z,99.90
2022-10-18T22:04:03.340Z,99.90
2022-10-18T22:06:32.782Z,99.90
2022-10-18T22:09:02.005Z,99.90
2022-10-18T22:11:34.916Z,99.90
2022-10-18T22:14:01.942Z,99.90
2022-10-18T22:16:28.852Z,99.90
2022-10-18T22:19:00.832Z,99.90
2022-10-18T22:21:28.528Z,99.90
2022-10-18T22:23:57.302Z,99.90
2022-10-18T22:26:27.041Z,99.90
2022-10-18T22:28:59.527Z,99.90
2022-10-18T22:31:29.511Z,99.90
2022-10-18T22:34:03.148Z,99.90
2022-10-18T22:36:30.634Z,99.90
2022-10-18T22:38:57.497Z,99.90
2022-10-18T22:41:24.472Z,99.90
2022-10-18T22:43:52.150Z,99.90
2022-10-18T22:46:19.618Z,99.90
2022-10-18T22:48:46.523Z,99.90
2022-10-18T22:51:13.344Z,99.90
2022-10-18T22:53:41.098Z,99.90
2022-10-18T22:56:10.397Z,99.90
2022-10-18T22:58:37.253Z,99.90
2022-10-18T23:01:07.081Z,99.90
2022-10-18T23:03:34.521Z,99.90
2022-10-18T23:06:01.712Z,99.90
2022-10-18T23:08:29.405Z,99.90
2022-10-18T23:10:58.942Z,99.90
2022-10-18T23:13:27.335Z,99.90
2022-10-18T23:16:04.214Z,99.90
2022-10-18T23:18:32.976Z,99.90
2022-10-18T23:21:08.427Z,99.90
2022-10-18T23:23:37.094Z,99.90
2022-10-18T23:26:11.301Z,99.90
2022-10-18T23:28:40.339Z,99.90
2022-10-18T23:31:11.353Z,99.90
2022-10-18T23:33:39.259Z,99.90
2022-10-18T23:36:07.800Z,99.90
2022-10-18T23:38:35.357Z,99.90
2022-10-18T23:41:02.256Z,99.90
2022-10-18T23:43:29.095Z,99.90
2022-10-18T23:45:55.980Z,99.90
2022-10-18T23:48:22.972Z,99.90
2022-10-18T23:50:49.811Z,99.90
2022-10-18T23:53:16.962Z,99.90
2022-10-18T23:55:54.984Z,99.90
2022-10-18T23:58:22.058Z,99.90
